Time;durP1;ratioP1;P1;durP2;ratioP2;P2;SDS_P1;SDS_P2;PMS_P1;PMS_P2;Temp;Humidity;BMP_temperature;BMP_pressure;BME280_temperature;BME280_humidity;BME280_pressure;Samples;Min_cycle;Max_cycle;Signal;HPM_P1;HPM_P2
2021/01/07 00:01:57;;;;;;;;;;;23.00;40.80;;;;;;1575320;74;765;-62
2021/01/07 00:03:59;;;;;;;;;;;23.00;40.80;;;;;;1571640;74;715;-62
2021/01/07 00:06:01;;;;;;;;;;;22.90;40.90;;;;;;1571347;74;1097;-61
2021/01/07 00:08:03;;;;;;;;;;;23.00;40.80;;;;;;1570542;74;778;-63
2021/01/07 00:10:05;;;;;;;;;;;23.00;40.80;;;;;;1569438;74;746;-63
2021/01/07 00:12:07;;;;;;;;;;;23.00;40.80;;;;;;1562859;74;760;-64
2021/01/07 00:14:09;;;;;;;;;;;23.00;40.80;;;;;;1564262;74;776;-64
2021/01/07 00:16:11;;;;;;;;;;;23.00;40.80;;;;;;1565629;74;1132;-64
2021/01/07 00:18:13;;;;;;;;;;;23.00;40.80;;;;;;1574919;74;1939;-65
2021/01/07 00:20:15;;;;;;;;;;;23.00;40.80;;;;;;1566734;74;787;-65
2021/01/07 00:22:17;;;;;;;;;;;22.90;40.90;;;;;;1563435;74;815;-65
2021/01/07 00:24:18;;;;;;;;;;;22.90;41.00;;;;;;1568058;74;796;-66
2021/01/07 00:26:20;;;;;;;;;;;23.00;41.00;;;;;;1564055;75;1152;-64
2021/01/07 00:28:22;;;;;;;;;;;23.00;41.00;;;;;;1562602;74;705;-64
2021/01/07 00:30:24;;;;;;;;;;;22.90;41.00;;;;;;1570734;74;685;-66
2021/01/07 00:32:26;;;;;;;;;;;22.90;40.90;;;;;;1567474;74;700;-65
2021/01/07 00:34:28;;;;;;;;;;;23.00;40.80;;;;;;1566967;74;784;-64
2021/01/07 00:36:30;;;;;;;;;;;23.00;40.70;;;;;;1576578;74;1077;-65
2021/01/07 00:38:32;;;;;;;;;;;22.90;40.70;;;;;;1570026;74;1930;-64
2021/01/07 00:40:34;;;;;;;;;;;23.00;40.80;;;;;;1572745;74;815;-64
2021/01/07 00:42:36;;;;;;;;;;;23.00;40.70;;;;;;1564889;74;655;-64
2021/01/07 00:44:38;;;;;;;;;;;23.00;40.90;;;;;;1567856;74;769;-64
2021/01/07 00:46:40;;;;;;;;;;;23.00;40.80;;;;;;1570916;74;1227;-64
2021/01/07 00:48:42;;;;;;;;;;;23.00;40.70;;;;;;1564531;74;728;-64
2021/01/07 00:50:44;;;;;;;;;;;23.00;40.70;;;;;;1568178;74;692;-63
2021/01/07 00:52:46;;;;;;;;;;;23.00;40.70;;;;;;1569891;74;781;-62
2021/01/07 00:54:47;;;;;;;;;;;22.90;40.70;;;;;;1560449;74;789;-62
2021/01/07 00:56:49;;;;;;;;;;;23.00;40.70;;;;;;1571856;74;1140;-64
2021/01/07 00:58:51;;;;;;;;;;;22.90;40.80;;;;;;1568224;74;1943;-64
2021/01/07 01:00:53;;;;;;;;;;;23.00;41.00;;;;;;1566290;74;956;-64
2021/01/07 01:02:55;;;;;;;;;;;22.90;41.00;;;;;;1573480;74;761;-64
2021/01/07 01:04:57;;;;;;;;;;;22.90;41.00;;;;;;1573171;74;775;-63
2021/01/07 01:06:59;;;;;;;;;;;23.00;41.00;;;;;;1566333;74;1149;-65
2021/01/07 01:09:01;;;;;;;;;;;22.90;41.00;;;;;;1559848;74;803;-64
2021/01/07 01:11:02;;;;;;;;;;;22.90;40.90;;;;;;1562805;74;776;-65
2021/01/07 01:13:04;;;;;;;;;;;22.90;40.90;;;;;;1561187;74;840;-63
2021/01/07 01:15:08;;;;;;;;;;;22.90;41.00;;;;;;1559627;74;792;-64
2021/01/07 01:17:10;;;;;;;;;;;22.90;40.90;;;;;;1564644;74;1733;-64
2021/01/07 01:19:12;;;;;;;;;;;23.00;40.90;;;;;;1563934;74;1914;-64
2021/01/07 01:21:15;;;;;;;;;;;23.00;40.90;;;;;;1567462;74;719;-64
2021/01/07 01:23:17;;;;;;;;;;;22.90;40.80;;;;;;1563582;74;728;-64
2021/01/07 01:25:19;;;;;;;;;;;22.90;40.80;;;;;;1567984;74;672;-63
2021/01/07 01:27:21;;;;;;;;;;;23.00;40.70;;;;;;1562591;74;1090;-62
2021/01/07 01:29:23;;;;;;;;;;;23.00;40.70;;;;;;1563729;74;729;-64
2021/01/07 01:31:25;;;;;;;;;;;23.00;40.70;;;;;;1572760;74;826;-65
2021/01/07 01:33:27;;;;;;;;;;;23.00;40.70;;;;;;1570314;74;789;-65
2021/01/07 01:35:29;;;;;;;;;;;22.90;40.60;;;;;;1561742;74;777;-64
2021/01/07 01:37:31;;;;;;;;;;;23.00;40.60;;;;;;1568877;74;1953;-64
2021/01/07 01:39:33;;;;;;;;;;;23.00;40.50;;;;;;1569405;74;830;-64
2021/01/07 01:41:44;;;;;;;;;;;23.00;40.50;;;;;;1570823;74;1326;-63
2021/01/07 01:43:46;;;;;;;;;;;23.00;40.50;;;;;;1565535;74;782;-62
2021/01/07 01:45:48;;;;;;;;;;;22.90;40.60;;;;;;1564238;74;1180;-62
2021/01/07 01:47:50;;;;;;;;;;;22.90;40.70;;;;;;1564424;74;796;-64
2021/01/07 01:49:52;;;;;;;;;;;22.90;40.70;;;;;;1534384;76;869;-63
2021/01/07 01:51:54;;;;;;;;;;;22.90;40.60;;;;;;1564712;76;939;-64
2021/01/07 01:53:56;;;;;;;;;;;22.90;40.50;;;;;;1558713;76;796;-62
2021/01/07 01:55:59;;;;;;;;;;;22.90;40.60;;;;;;1536289;75;1166;-62
2021/01/07 01:58:01;;;;;;;;;;;22.80;40.60;;;;;;1528643;75;1919;-62
2021/01/07 02:00:05;;;;;;;;;;;22.90;40.70;;;;;;1535345;76;858;-62
2021/01/07 02:02:07;;;;;;;;;;;22.80;40.60;;;;;;1553747;75;790;-63
2021/01/07 02:04:09;;;;;;;;;;;22.80;40.60;;;;;;1549735;75;766;-63
2021/01/07 02:06:12;;;;;;;;;;;22.90;40.70;;;;;;1557306;75;1145;-63
2021/01/07 02:08:14;;;;;;;;;;;22.90;40.60;;;;;;1557461;71;216770;-74
2021/01/07 02:10:16;;;;;;;;;;;22.90;40.50;;;;;;1565834;75;805;-71
2021/01/07 02:12:18;;;;;;;;;;;22.90;40.60;;;;;;1561574;75;738;-72
2021/01/07 02:14:19;;;;;;;;;;;23.00;40.50;;;;;;1564105;74;740;-74
2021/01/07 02:16:22;;;;;;;;;;;22.90;40.50;;;;;;1567697;75;780;-71
2021/01/07 02:18:24;;;;;;;;;;;22.90;40.50;;;;;;1539347;76;1963;-70
2021/01/07 02:20:26;;;;;;;;;;;22.90;40.50;;;;;;1536165;76;778;-72
2021/01/07 02:22:28;;;;;;;;;;;22.90;40.50;;;;;;1535715;76;738;-71
2021/01/07 02:24:30;;;;;;;;;;;22.90;40.40;;;;;;1535613;76;814;-71
2021/01/07 02:26:32;;;;;;;;;;;22.90;40.50;;;;;;1535360;76;796;-71
2021/01/07 02:28:34;;;;;;;;;;;22.90;40.50;;;;;;1535722;76;1027;-73
2021/01/07 02:30:35;;;;;;;;;;;22.90;40.60;;;;;;1510917;77;741;-70
2021/01/07 02:32:37;;;;;;;;;;;22.90;40.50;;;;;;1509555;77;785;-71
2021/01/07 02:34:39;;;;;;;;;;;22.90;40.50;;;;;;1511241;77;705;-71
2021/01/07 02:36:41;;;;;;;;;;;22.90;40.50;;;;;;1512040;77;1171;-71
2021/01/07 02:38:43;;;;;;;;;;;23.00;40.40;;;;;;1520719;77;1952;-71
2021/01/07 02:40:46;;;;;;;;;;;22.90;40.40;;;;;;1520171;77;747;-70
2021/01/07 02:42:48;;;;;;;;;;;22.90;40.40;;;;;;1515098;78;740;-70
2021/01/07 02:44:50;;;;;;;;;;;22.90;40.50;;;;;;1514592;77;754;-70
2021/01/07 02:46:52;;;;;;;;;;;22.90;40.40;;;;;;1522981;77;1190;-70
2021/01/07 02:48:54;;;;;;;;;;;23.00;40.30;;;;;;1545209;75;718;-70
2021/01/07 02:50:56;;;;;;;;;;;23.00;40.30;;;;;;1527880;76;772;-70
2021/01/07 02:52:57;;;;;;;;;;;22.90;40.30;;;;;;1547570;76;749;-70
2021/01/07 02:54:59;;;;;;;;;;;23.00;40.30;;;;;;1543364;76;771;-70
2021/01/07 02:57:02;;;;;;;;;;;22.90;40.20;;;;;;1541293;76;1146;-70
2021/01/07 02:59:04;;;;;;;;;;;23.00;40.30;;;;;;1542224;76;1920;-69
2021/01/07 03:01:05;;;;;;;;;;;22.90;40.30;;;;;;1526634;76;755;-70
2021/01/07 03:03:07;;;;;;;;;;;22.90;40.30;;;;;;1539424;76;711;-69
2021/01/07 03:05:10;;;;;;;;;;;23.00;40.30;;;;;;1541709;76;749;-68
2021/01/07 03:07:12;;;;;;;;;;;23.00;40.30;;;;;;1540564;76;1286;-69
2021/01/07 03:09:14;;;;;;;;;;;22.90;40.20;;;;;;1522920;76;764;-69
2021/01/07 03:11:16;;;;;;;;;;;22.90;40.30;;;;;;1547347;75;668;-71
2021/01/07 03:13:18;;;;;;;;;;;22.90;40.20;;;;;;1551918;75;806;-70
2021/01/07 03:15:19;;;;;;;;;;;22.90;40.30;;;;;;1551390;76;759;-71
2021/01/07 03:17:21;;;;;;;;;;;22.90;40.30;;;;;;1550647;75;1118;-70
2021/01/07 03:19:23;;;;;;;;;;;23.00;40.30;;;;;;1549722;75;1947;-70
2021/01/07 03:21:25;;;;;;;;;;;22.90;40.30;;;;;;1542524;75;729;-73
2021/01/07 03:23:27;;;;;;;;;;;22.90;40.30;;;;;;1548860;75;716;-70
2021/01/07 03:25:29;;;;;;;;;;;22.90;40.20;;;;;;1547355;76;716;-71
2021/01/07 03:27:31;;;;;;;;;;;22.90;40.10;;;;;;1548755;75;1100;-69
2021/01/07 03:29:32;;;;;;;;;;;22.90;40.20;;;;;;1552923;76;695;-71
2021/01/07 03:31:34;;;;;;;;;;;23.00;40.10;;;;;;1543816;76;716;-70
2021/01/07 03:33:36;;;;;;;;;;;23.00;40.00;;;;;;1546426;76;790;-71
2021/01/07 03:35:38;;;;;;;;;;;22.90;40.20;;;;;;1538606;76;671;-71
2021/01/07 03:37:40;;;;;;;;;;;23.00;40.10;;;;;;1536936;76;1118;-71
2021/01/07 03:39:42;;;;;;;;;;;22.90;40.10;;;;;;1531530;76;1933;-71
2021/01/07 03:41:44;;;;;;;;;;;22.90;40.10;;;;;;1531884;76;811;-71
2021/01/07 03:43:46;;;;;;;;;;;22.90;40.10;;;;;;1536791;76;809;-71
2021/01/07 03:45:48;;;;;;;;;;;22.90;40.10;;;;;;1536671;76;787;-68
2021/01/07 03:47:49;;;;;;;;;;;22.90;40.10;;;;;;1539590;76;1150;-69
2021/01/07 03:49:51;;;;;;;;;;;22.90;40.20;;;;;;1540268;76;676;-70
2021/01/07 03:51:53;;;;;;;;;;;22.90;40.20;;;;;;1538913;76;782;-71
2021/01/07 03:53:55;;;;;;;;;;;23.00;40.40;;;;;;1547247;76;775;-69
2021/01/07 03:55:57;;;;;;;;;;;22.90;40.50;;;;;;1538193;76;784;-70
2021/01/07 03:57:59;;;;;;;;;;;22.90;40.50;;;;;;1537137;76;1148;-69
2021/01/07 04:00:01;;;;;;;;;;;22.90;40.50;;;;;;1536891;76;1960;-69
2021/01/07 04:02:03;;;;;;;;;;;22.90;40.40;;;;;;1536185;76;732;-69
2021/01/07 04:04:05;;;;;;;;;;;22.90;40.50;;;;;;1536743;76;721;-69
2021/01/07 04:06:07;;;;;;;;;;;22.90;40.50;;;;;;1536892;76;683;-70
2021/01/07 04:08:08;;;;;;;;;;;22.80;40.30;;;;;;1538724;76;1174;-70
2021/01/07 04:10:10;;;;;;;;;;;22.90;40.40;;;;;;1536403;76;692;-72
2021/01/07 04:12:12;;;;;;;;;;;23.00;40.40;;;;;;1547278;76;728;-72
2021/01/07 04:14:14;;;;;;;;;;;22.90;40.20;;;;;;1546059;76;743;-69
2021/01/07 04:16:16;;;;;;;;;;;22.90;40.20;;;;;;1532673;75;766;-70
2021/01/07 04:18:18;;;;;;;;;;;22.90;40.20;;;;;;1548704;76;1079;-69
2021/01/07 04:20:20;;;;;;;;;;;22.80;40.20;;;;;;1542589;76;1945;-69
2021/01/07 04:22:22;;;;;;;;;;;22.80;40.20;;;;;;1541011;75;767;-69
2021/01/07 04:24:23;;;;;;;;;;;22.80;40.30;;;;;;1529139;76;761;-69
2021/01/07 04:26:25;;;;;;;;;;;22.80;40.30;;;;;;1540043;76;731;-69
2021/01/07 04:28:27;;;;;;;;;;;22.80;40.30;;;;;;1531867;76;1096;-70
2021/01/07 04:30:29;;;;;;;;;;;22.80;40.30;;;;;;1532526;76;731;-70
2021/01/07 04:32:31;;;;;;;;;;;22.70;40.30;;;;;;1547787;76;849;-70
2021/01/07 04:34:33;;;;;;;;;;;22.70;40.30;;;;;;1537490;76;798;-71
2021/01/07 04:36:35;;;;;;;;;;;22.80;40.30;;;;;;1536923;76;735;-70
2021/01/07 04:38:37;;;;;;;;;;;22.70;40.40;;;;;;1537616;76;1926;-70
2021/01/07 04:40:38;;;;;;;;;;;22.60;40.20;;;;;;1536206;76;917;-73
2021/01/07 04:42:40;;;;;;;;;;;22.70;40.40;;;;;;1535687;76;770;-69
2021/01/07 04:44:42;;;;;;;;;;;22.70;40.30;;;;;;1532679;76;779;-70
2021/01/07 04:46:44;;;;;;;;;;;22.70;40.30;;;;;;1540629;76;1165;-70
2021/01/07 04:48:46;;;;;;;;;;;22.70;40.20;;;;;;1536746;76;741;-70
2021/01/07 04:50:48;;;;;;;;;;;22.60;40.30;;;;;;1536901;76;724;-69
2021/01/07 04:52:50;;;;;;;;;;;22.70;40.30;;;;;;1530851;76;648;-70
2021/01/07 04:54:54;;;;;;;;;;;22.70;40.40;;;;;;1536951;76;690;-69
2021/01/07 04:56:56;;;;;;;;;;;22.60;40.20;;;;;;1539334;76;1164;-69
2021/01/07 04:58:58;;;;;;;;;;;22.70;40.30;;;;;;1536787;76;1933;-70
2021/01/07 05:01:00;;;;;;;;;;;22.60;40.20;;;;;;1538462;76;719;-69
2021/01/07 05:03:02;;;;;;;;;;;22.70;40.30;;;;;;1535256;76;787;-70
2021/01/07 05:05:04;;;;;;;;;;;22.70;40.20;;;;;;1537070;76;793;-68
2021/01/07 05:07:06;;;;;;;;;;;22.70;40.20;;;;;;1536104;76;1168;-69
2021/01/07 05:09:08;;;;;;;;;;;22.70;40.20;;;;;;1538933;77;750;-68
2021/01/07 05:11:10;;;;;;;;;;;22.70;40.00;;;;;;1538022;76;692;-68
2021/01/07 05:13:14;;;;;;;;;;;22.70;40.00;;;;;;1540937;76;800;-69
2021/01/07 05:15:15;;;;;;;;;;;22.70;40.00;;;;;;1549380;75;689;-68
2021/01/07 05:17:17;;;;;;;;;;;22.70;40.00;;;;;;1551346;75;1159;-68
2021/01/07 05:19:20;;;;;;;;;;;22.80;40.20;;;;;;1549317;75;1941;-69
2021/01/07 05:21:22;;;;;;;;;;;22.70;40.10;;;;;;1550575;75;889;-67
2021/01/07 05:23:23;;;;;;;;;;;22.70;40.00;;;;;;1550355;75;788;-68
2021/01/07 05:25:29;;;;;;;;;;;22.70;40.00;;;;;;1527871;77;872;-69
2021/01/07 05:27:29;;;;;;;;;;;22.80;39.80;;;;;;1549304;75;1631;-68
2021/01/07 05:29:31;;;;;;;;;;;22.80;39.80;;;;;;1550525;75;707;-70
2021/01/07 05:31:33;;;;;;;;;;;22.70;39.70;;;;;;1547992;76;756;-70
2021/01/07 05:33:35;;;;;;;;;;;22.80;39.60;;;;;;1537785;76;738;-70
2021/01/07 05:35:37;;;;;;;;;;;22.80;39.60;;;;;;1512331;77;1400;-69
2021/01/07 05:37:39;;;;;;;;;;;22.80;39.70;;;;;;1547624;76;1200;-68
2021/01/07 05:39:41;;;;;;;;;;;22.80;39.60;;;;;;1534110;76;1930;-70
2021/01/07 05:41:43;;;;;;;;;;;22.80;39.50;;;;;;1542397;77;868;-71
2021/01/07 05:43:45;;;;;;;;;;;22.70;39.50;;;;;;1512335;77;732;-71
2021/01/07 05:45:47;;;;;;;;;;;22.80;39.40;;;;;;1535230;76;758;-70
2021/01/07 05:47:49;;;;;;;;;;;22.70;39.50;;;;;;1536526;75;1181;-71
2021/01/07 05:49:51;;;;;;;;;;;22.80;39.60;;;;;;1532537;76;694;-70
2021/01/07 05:51:53;;;;;;;;;;;22.70;39.50;;;;;;1510523;77;786;-70
2021/01/07 05:53:55;;;;;;;;;;;22.70;39.50;;;;;;1538978;76;737;-72
2021/01/07 05:55:57;;;;;;;;;;;22.80;39.40;;;;;;1510170;77;713;-69
2021/01/07 05:58:00;;;;;;;;;;;22.80;39.40;;;;;;1523182;77;1089;-70
2021/01/07 06:00:02;;;;;;;;;;;22.70;39.40;;;;;;1508285;77;1923;-71
2021/01/07 06:02:04;;;;;;;;;;;22.70;39.40;;;;;;1540118;76;760;-70
2021/01/07 06:04:06;;;;;;;;;;;22.70;39.30;;;;;;1537236;76;708;-70
2021/01/07 06:06:08;;;;;;;;;;;22.70;39.30;;;;;;1538818;76;715;-69
2021/01/07 06:08:10;;;;;;;;;;;22.80;39.40;;;;;;1538114;76;1117;-70
2021/01/07 06:10:12;;;;;;;;;;;22.70;39.40;;;;;;1536670;76;763;-69
2021/01/07 06:12:14;;;;;;;;;;;22.80;39.40;;;;;;1547395;76;771;-68
2021/01/07 06:14:16;;;;;;;;;;;22.80;39.50;;;;;;1535517;75;754;-69
2021/01/07 06:16:19;;;;;;;;;;;22.80;39.70;;;;;;1505013;77;752;-68
2021/01/07 06:18:21;;;;;;;;;;;22.80;39.60;;;;;;1535081;76;1154;-69
2021/01/07 06:20:23;;;;;;;;;;;22.80;39.60;;;;;;1509036;77;1936;-68
2021/01/07 06:22:25;;;;;;;;;;;22.80;39.60;;;;;;1499610;77;780;-69
2021/01/07 06:24:28;;;;;;;;;;;22.80;39.50;;;;;;1511013;77;825;-68
2021/01/07 06:26:30;;;;;;;;;;;22.80;39.50;;;;;;1513125;77;779;-69
2021/01/07 06:28:32;;;;;;;;;;;22.80;39.60;;;;;;1511125;77;1097;-69
2021/01/07 06:30:34;;;;;;;;;;;22.80;39.60;;;;;;1532113;77;1173;-69
2021/01/07 06:32:36;;;;;;;;;;;22.80;39.50;;;;;;1535323;76;806;-69
2021/01/07 06:34:39;;;;;;;;;;;22.80;39.60;;;;;;1559586;75;741;-71
2021/01/07 06:36:42;;;;;;;;;;;22.80;39.60;;;;;;1543443;75;1153;-69
2021/01/07 06:38:51;;;;;;;;;;;22.80;39.40;;;;;;1548813;76;789;-69
2021/01/07 06:40:55;;;;;;;;;;;22.80;39.50;;;;;;1545264;76;1928;-69
2021/01/07 06:42:57;;;;;;;;;;;22.80;39.70;;;;;;1536631;76;1185;-68
2021/01/07 06:44:59;;;;;;;;;;;22.80;39.60;;;;;;1544567;76;684;-68
2021/01/07 06:47:01;;;;;;;;;;;22.80;39.60;;;;;;1512267;77;1132;-68
2021/01/07 06:49:17;;;;;;;;;;;22.80;39.40;;;;;;1536846;76;741;-69
2021/01/07 06:51:19;;;;;;;;;;;22.80;39.30;;;;;;1497364;76;1271;-69
2021/01/07 06:53:20;;;;;;;;;;;22.80;39.30;;;;;;1537665;76;709;-69
2021/01/07 06:55:22;;;;;;;;;;;22.80;39.40;;;;;;1524269;77;715;-69
2021/01/07 06:57:24;;;;;;;;;;;22.80;39.40;;;;;;1543711;76;1229;-71
2021/01/07 06:59:26;;;;;;;;;;;22.80;39.20;;;;;;1551931;76;1939;-68
2021/01/07 07:01:28;;;;;;;;;;;22.80;39.40;;;;;;1550818;75;930;-68
2021/01/07 07:03:30;;;;;;;;;;;22.80;39.40;;;;;;1547010;76;806;-69
2021/01/07 07:05:32;;;;;;;;;;;22.80;39.60;;;;;;1522612;77;790;-69
2021/01/07 07:07:42;;;;;;;;;;;22.80;39.40;;;;;;1540175;76;1152;-68
2021/01/07 07:09:45;;;;;;;;;;;22.80;39.40;;;;;;1536905;76;788;-69
2021/01/07 07:11:56;;;;;;;;;;;22.80;39.20;;;;;;1541020;76;731;-70
2021/01/07 07:14:02;;;;;;;;;;;22.80;39.20;;;;;;1540253;76;697;-69
2021/01/07 07:16:04;;;;;;;;;;;22.80;39.20;;;;;;1543684;76;821;-68
2021/01/07 07:18:06;;;;;;;;;;;22.80;39.10;;;;;;1522980;76;1210;-71
2021/01/07 07:20:08;;;;;;;;;;;22.80;39.20;;;;;;1522489;76;1922;-68
2021/01/07 07:22:10;;;;;;;;;;;22.80;39.20;;;;;;1545976;76;708;-69
2021/01/07 07:24:12;;;;;;;;;;;22.80;39.30;;;;;;1548327;75;674;-69
2021/01/07 07:26:31;;;;;;;;;;;22.80;39.20;;;;;;1539005;77;746;-69
2021/01/07 07:28:32;;;;;;;;;;;22.80;39.20;;;;;;1535950;76;1129;-69
2021/01/07 07:30:34;;;;;;;;;;;22.80;39.20;;;;;;1536849;77;786;-69
2021/01/07 07:32:37;;;;;;;;;;;22.80;39.20;;;;;;1535846;76;793;-69
2021/01/07 07:34:39;;;;;;;;;;;22.80;39.10;;;;;;1511416;77;1151;-69
2021/01/07 07:36:41;;;;;;;;;;;22.80;39.00;;;;;;1536228;75;1171;-69
2021/01/07 07:38:43;;;;;;;;;;;22.80;39.20;;;;;;1532496;76;705;-69
2021/01/07 07:40:45;;;;;;;;;;;22.80;39.50;;;;;;1537301;77;1898;-69
2021/01/07 07:42:47;;;;;;;;;;;22.80;39.60;;;;;;1539265;76;798;-69
2021/01/07 07:44:49;;;;;;;;;;;22.80;39.50;;;;;;1540736;75;938;-69
2021/01/07 07:46:52;;;;;;;;;;;22.80;39.60;;;;;;1538854;76;1129;-70
2021/01/07 07:48:58;;;;;;;;;;;22.80;39.60;;;;;;1537381;76;728;-69
2021/01/07 07:51:06;;;;;;;;;;;22.80;39.40;;;;;;1539065;76;788;-68
2021/01/07 07:53:11;;;;;;;;;;;22.80;39.60;;;;;;1533823;77;756;-68
2021/01/07 07:55:13;;;;;;;;;;;22.80;39.60;;;;;;1536098;76;777;-70
2021/01/07 07:57:15;;;;;;;;;;;22.80;39.40;;;;;;1535590;76;1173;-68
2021/01/07 07:59:17;;;;;;;;;;;22.80;39.40;;;;;;1538082;75;737;-70
2021/01/07 08:01:19;;;;;;;;;;;22.80;39.40;;;;;;1539581;76;1924;-70
2021/01/07 08:03:22;;;;;;;;;;;22.80;39.40;;;;;;1538813;76;741;-69
2021/01/07 08:05:30;;;;;;;;;;;22.80;39.40;;;;;;1539049;76;750;-71
2021/01/07 08:07:29;;;;;;;;;;;22.80;39.50;;;;;;1507882;77;1828;-69
2021/01/07 08:09:31;;;;;;;;;;;22.90;39.80;;;;;;1551132;75;693;-73
2021/01/07 08:11:34;;;;;;;;;;;22.80;39.70;;;;;;1543335;76;793;-70
2021/01/07 08:13:36;;;;;;;;;;;22.90;39.70;;;;;;1538618;76;1824;-70
2021/01/07 08:15:38;;;;;;;;;;;22.80;39.60;;;;;;1506002;77;775;-70
2021/01/07 08:17:40;;;;;;;;;;;22.80;39.70;;;;;;1541259;76;1201;-69
2021/01/07 08:19:44;;;;;;;;;;;22.80;39.70;;;;;;1537276;76;705;-70
2021/01/07 08:21:46;;;;;;;;;;;22.80;39.70;;;;;;1513547;77;1915;-69
2021/01/07 08:23:48;;;;;;;;;;;22.80;39.70;;;;;;1541799;76;785;-70
2021/01/07 08:25:50;;;;;;;;;;;22.80;39.50;;;;;;1536683;76;768;-71
2021/01/07 08:27:54;;;;;;;;;;;22.80;39.40;;;;;;1537059;76;1124;-70
2021/01/07 08:29:56;;;;;;;;;;;22.80;39.40;;;;;;1537737;76;739;-72
2021/01/07 08:31:58;;;;;;;;;;;22.80;39.40;;;;;;1539146;76;717;-70
2021/01/07 08:34:00;;;;;;;;;;;22.90;39.70;;;;;;1542477;76;783;-69
2021/01/07 08:36:02;;;;;;;;;;;22.90;39.60;;;;;;1512467;77;1180;-69
2021/01/07 08:38:04;;;;;;;;;;;22.90;39.50;;;;;;1534382;76;1126;-70
2021/01/07 08:40:06;;;;;;;;;;;22.90;39.60;;;;;;1539564;76;1941;-70
2021/01/07 08:42:08;;;;;;;;;;;22.90;39.70;;;;;;1536561;76;759;-71
2021/01/07 08:44:10;;;;;;;;;;;22.90;39.60;;;;;;1537935;76;805;-70
2021/01/07 08:46:13;;;;;;;;;;;22.80;39.30;;;;;;1536165;75;704;-70
2021/01/07 08:48:14;;;;;;;;;;;22.90;39.50;;;;;;1505875;77;1181;-70
2021/01/07 08:50:19;;;;;;;;;;;22.80;39.50;;;;;;1568480;75;843;-70
2021/01/07 08:52:20;;;;;;;;;;;22.80;39.50;;;;;;1567885;74;1642;-70
2021/01/07 08:54:23;;;;;;;;;;;22.90;39.50;;;;;;1567554;75;755;-71
2021/01/07 08:56:31;;;;;;;;;;;22.90;39.60;;;;;;1568171;75;749;-72
2021/01/07 08:58:33;;;;;;;;;;;22.90;39.50;;;;;;1568134;74;1122;-71
2021/01/07 09:00:34;;;;;;;;;;;22.90;39.50;;;;;;1569064;75;1928;-70
2021/01/07 09:02:36;;;;;;;;;;;22.80;39.40;;;;;;1569200;74;722;-72
2021/01/07 09:04:43;;;;;;;;;;;22.90;39.40;;;;;;1560760;74;788;-71
2021/01/07 09:06:46;;;;;;;;;;;22.90;39.50;;;;;;1567641;74;1537;-71
2021/01/07 09:08:48;;;;;;;;;;;22.90;39.40;;;;;;1568701;75;2143;-71
2021/01/07 09:10:50;;;;;;;;;;;22.90;39.40;;;;;;1512450;77;735;-70
2021/01/07 09:12:52;;;;;;;;;;;22.90;39.60;;;;;;1510304;77;722;-70
2021/01/07 09:14:57;;;;;;;;;;;22.90;39.60;;;;;;1510739;77;807;-71
2021/01/07 09:16:59;;;;;;;;;;;22.80;39.50;;;;;;1503888;77;1145;-69
2021/01/07 09:19:04;;;;;;;;;;;22.80;39.30;;;;;;1522592;77;738;-68
2021/01/07 09:21:13;;;;;;;;;;;22.80;39.40;;;;;;1522391;77;1940;-69
2021/01/07 09:23:15;;;;;;;;;;;22.80;39.40;;;;;;1521057;77;755;-68
2021/01/07 09:25:18;;;;;;;;;;;22.90;39.70;;;;;;1511398;77;769;-70
2021/01/07 09:27:21;;;;;;;;;;;22.80;39.40;;;;;;1508220;77;1170;-69
2021/01/07 09:29:23;;;;;;;;;;;22.80;39.50;;;;;;1535958;75;800;-69
2021/01/07 09:31:24;;;;;;;;;;;22.80;39.50;;;;;;1536076;75;735;-69
2021/01/07 09:33:26;;;;;;;;;;;22.80;39.40;;;;;;1535179;76;738;-70
2021/01/07 09:35:28;;;;;;;;;;;22.90;39.40;;;;;;1537597;76;827;-72
2021/01/07 09:37:30;;;;;;;;;;;22.90;39.40;;;;;;1539851;76;1183;-72
2021/01/07 09:39:32;;;;;;;;;;;22.80;39.40;;;;;;1536595;76;596;-72
2021/01/07 09:41:34;;;;;;;;;;;22.90;39.40;;;;;;1535942;76;1929;-70
2021/01/07 09:43:36;;;;;;;;;;;22.80;39.40;;;;;;1551997;75;725;-74
2021/01/07 09:45:37;;;;;;;;;;;22.90;39.30;;;;;;1541630;76;788;-74
2021/01/07 09:47:39;;;;;;;;;;;23.00;39.20;;;;;;1544809;76;1175;-75
2021/01/07 09:49:41;;;;;;;;;;;23.00;38.90;;;;;;1552429;76;790;-73
2021/01/07 09:51:43;;;;;;;;;;;23.10;38.60;;;;;;1551815;76;776;-73
2021/01/07 09:53:45;;;;;;;;;;;23.20;38.40;;;;;;1539858;76;832;-72
2021/01/07 09:55:48;;;;;;;;;;;23.20;38.20;;;;;;1536124;76;753;-71
2021/01/07 09:57:51;;;;;;;;;;;23.20;38.00;;;;;;1548667;76;1379;-73
2021/01/07 09:59:53;;;;;;;;;;;23.40;37.90;;;;;;1552688;75;783;-69
2021/01/07 10:01:55;;;;;;;;;;;23.20;37.70;;;;;;1503314;77;1945;-76
2021/01/07 10:03:57;;;;;;;;;;;23.30;37.80;;;;;;1534660;76;666;-70
2021/01/07 10:05:59;;;;;;;;;;;23.20;37.50;;;;;;1541431;76;806;-71
2021/01/07 10:08:01;;;;;;;;;;;23.20;37.80;;;;;;1539526;76;1158;-72
2021/01/07 10:10:03;;;;;;;;;;;23.30;38.00;;;;;;1536571;76;739;-69
2021/01/07 10:12:05;;;;;;;;;;;23.20;38.10;;;;;;1536471;76;792;-68
2021/01/07 10:14:07;;;;;;;;;;;23.30;38.20;;;;;;1534312;76;807;-71
2021/01/07 10:16:14;;;;;;;;;;;23.30;38.10;;;;;;1503743;77;711;-70
2021/01/07 10:18:16;;;;;;;;;;;23.40;38.20;;;;;;1536214;76;2289;-67
2021/01/07 10:20:17;;;;;;;;;;;23.30;38.10;;;;;;1536961;76;772;-71
2021/01/07 10:22:19;;;;;;;;;;;23.30;38.00;;;;;;1538082;76;1935;-71
2021/01/07 10:24:21;;;;;;;;;;;23.30;38.10;;;;;;1528509;76;759;-69
2021/01/07 10:26:23;;;;;;;;;;;23.30;37.90;;;;;;1532800;75;752;-71
2021/01/07 10:28:26;;;;;;;;;;;23.30;37.90;;;;;;1546529;75;1130;-75
2021/01/07 10:30:28;;;;;;;;;;;23.30;38.10;;;;;;1552983;75;773;-70
2021/01/07 10:32:30;;;;;;;;;;;23.30;37.80;;;;;;1548687;76;807;-69
2021/01/07 10:34:35;;;;;;;;;;;23.20;37.70;;;;;;1549945;75;688;-70
2021/01/07 10:36:37;;;;;;;;;;;23.20;37.80;;;;;;1552302;75;770;-73
2021/01/07 10:38:39;;;;;;;;;;;23.20;38.00;;;;;;1544959;75;1163;-70
2021/01/07 10:40:42;;;;;;;;;;;23.10;38.10;;;;;;1549809;76;1927;-69
2021/01/07 10:42:46;;;;;;;;;;;23.20;38.10;;;;;;1550334;76;2086;-70
2021/01/07 10:44:49;;;;;;;;;;;23.20;38.20;;;;;;1550183;75;1933;-69
2021/01/07 10:46:54;;;;;;;;;;;23.20;38.20;;;;;;1550097;75;1148;-70
2021/01/07 10:48:56;;;;;;;;;;;23.20;38.10;;;;;;1550810;75;767;-72
2021/01/07 10:50:59;;;;;;;;;;;23.20;38.10;;;;;;1532238;75;783;-69
2021/01/07 10:53:15;;;;;;;;;;;23.20;37.90;;;;;;1547302;75;767;-69
2021/01/07 10:55:20;;;;;;;;;;;23.20;38.00;;;;;;1549707;76;864;-70
2021/01/07 10:57:42;;;;;;;;;;;23.20;38.10;;;;;;1542386;76;1135;-73
2021/01/07 11:00:04;;;;;;;;;;;23.20;38.00;;;;;;1539825;76;706;-72
2021/01/07 11:02:14;;;;;;;;;;;23.30;37.80;;;;;;1535120;75;1939;-70
2021/01/07 11:04:33;;;;;;;;;;;23.40;37.60;;;;;;1524879;76;698;-71
2021/01/07 11:06:35;;;;;;;;;;;23.50;37.50;;;;;;1444396;81;1200;-71
2021/01/07 11:08:55;;;;;;;;;;;23.40;37.10;;;;;;1471268;77;1209;-70
2021/01/07 11:10:58;;;;;;;;;;;23.50;37.30;;;;;;1514184;77;778;-73
2021/01/07 11:13:02;;;;;;;;;;;23.50;37.30;;;;;;1563832;75;706;-69
2021/01/07 11:15:04;;;;;;;;;;;23.50;37.40;;;;;;1567233;74;874;-68
2021/01/07 11:17:06;;;;;;;;;;;23.50;37.40;;;;;;1565893;75;1117;-69
2021/01/07 11:19:11;;;;;;;;;;;23.50;37.30;;;;;;1569233;75;703;-70
2021/01/07 11:21:14;;;;;;;;;;;23.50;37.20;;;;;;1568768;74;1914;-70
2021/01/07 11:23:15;;;;;;;;;;;23.60;37.10;;;;;;1575014;75;739;-71
2021/01/07 11:25:17;;;;;;;;;;;23.60;36.90;;;;;;1565360;74;753;-70
2021/01/07 11:27:19;;;;;;;;;;;23.60;36.90;;;;;;1563717;74;1150;-74
2021/01/07 11:29:21;;;;;;;;;;;23.50;37.10;;;;;;1565184;75;690;-69
2021/01/07 11:31:23;;;;;;;;;;;23.50;37.10;;;;;;1568781;75;763;-70
2021/01/07 11:33:25;;;;;;;;;;;23.50;37.20;;;;;;1569567;74;755;-70
2021/01/07 11:35:27;;;;;;;;;;;23.50;37.30;;;;;;1568180;74;776;-71
2021/01/07 11:37:36;;;;;;;;;;;23.50;37.30;;;;;;1563367;75;1184;-74
2021/01/07 11:39:49;;;;;;;;;;;23.60;37.40;;;;;;1568873;74;1499;-69
2021/01/07 11:41:55;;;;;;;;;;;23.50;37.60;;;;;;1569404;75;1924;-69
2021/01/07 11:44:15;;;;;;;;;;;23.50;37.30;;;;;;1572707;75;2052;-69
2021/01/07 11:46:18;;;;;;;;;;;23.50;37.30;;;;;;1565787;74;759;-67
2021/01/07 11:48:20;;;;;;;;;;;23.60;37.40;;;;;;1568358;74;1118;-68
2021/01/07 11:50:22;;;;;;;;;;;23.50;37.50;;;;;;1566672;74;734;-70
2021/01/07 11:52:24;;;;;;;;;;;23.50;37.50;;;;;;1568852;74;720;-67
2021/01/07 11:54:27;;;;;;;;;;;23.50;37.60;;;;;;1567942;75;713;-70
2021/01/07 11:56:31;;;;;;;;;;;23.50;37.60;;;;;;1570567;75;695;-69
2021/01/07 11:58:35;;;;;;;;;;;23.60;37.60;;;;;;1534827;77;1294;-70
2021/01/07 12:00:37;;;;;;;;;;;23.60;37.40;;;;;;1535886;76;654;-68
2021/01/07 12:02:42;;;;;;;;;;;23.60;37.40;;;;;;1536529;76;1926;-67
2021/01/07 12:04:44;;;;;;;;;;;23.60;37.40;;;;;;1539298;76;731;-69
2021/01/07 12:06:47;;;;;;;;;;;23.60;37.20;;;;;;1538149;76;1152;-69
2021/01/07 12:08:51;;;;;;;;;;;23.60;37.10;;;;;;1507642;79;1955;-68
2021/01/07 12:10:53;;;;;;;;;;;23.80;37.10;;;;;;1511565;77;2118;-69
2021/01/07 12:12:59;;;;;;;;;;;23.70;37.00;;;;;;1509280;78;848;-68